sensor_id;sensor_type;location;lat;lon;timestamp;P1;durP1;ratioP1;P2;durP2;ratioP2
8536;SDS011;4306;50.210;10.628;2022-07-01T00:02:20;5.90;;;3.10;;
8536;SDS011;4306;50.210;10.628;2022-07-01T00:04:48;8.52;;;3.05;;
8536;SDS011;4306;50.210;10.628;2022-07-01T00:07:14;9.57;;;3.22;;
8536;SDS011;4306;50.210;10.628;2022-07-01T00:09:41;7.93;;;3.10;;
8536;SDS011;4306;50.210;10.628;2022-07-01T00:12:10;5.53;;;3.38;;
8536;SDS011;4306;50.210;10.628;2022-07-01T00:14:37;5.78;;;3.25;;
8536;SDS011;4306;50.210;10.628;2022-07-01T00:17:04;5.82;;;2.90;;
8536;SDS011;4306;50.210;10.628;2022-07-01T00:19:31;4.22;;;3.17;;
8536;SDS011;4306;50.210;10.628;2022-07-01T00:21:58;5.43;;;2.95;;
8536;SDS011;4306;50.210;10.628;2022-07-01T00:24:26;8.98;;;3.38;;
8536;SDS011;4306;50.210;10.628;2022-07-01T00:26:53;11.57;;;3.30;;
8536;SDS011;4306;50.210;10.628;2022-07-01T00:29:21;7.32;;;3.50;;
8536;SDS011;4306;50.210;10.628;2022-07-01T00:31:48;7.65;;;3.03;;
8536;SDS011;4306;50.210;10.628;2022-07-01T00:34:15;11.35;;;3.55;;
8536;SDS011;4306;50.210;10.628;2022-07-01T00:36:42;6.30;;;3.03;;
8536;SDS011;4306;50.210;10.628;2022-07-01T00:39:09;12.65;;;3.55;;
8536;SDS011;4306;50.210;10.628;2022-07-01T00:41:36;6.30;;;3.00;;
8536;SDS011;4306;50.210;10.628;2022-07-01T00:44:03;6.65;;;3.45;;
8536;SDS011;4306;50.210;10.628;2022-07-01T00:46:31;6.80;;;2.85;;
8536;SDS011;4306;50.210;10.628;2022-07-01T00:48:59;4.82;;;3.20;;
8536;SDS011;4306;50.210;10.628;2022-07-01T00:51:26;5.00;;;3.15;;
8536;SDS011;4306;50.210;10.628;2022-07-01T00:53:54;3.88;;;3.15;;
8536;SDS011;4306;50.210;10.628;2022-07-01T00:56:23;7.30;;;3.47;;
8536;SDS011;4306;50.210;10.628;2022-07-01T00:58:50;4.68;;;3.00;;
8536;SDS011;4306;50.210;10.628;2022-07-01T01:01:17;4.50;;;3.30;;
8536;SDS011;4306;50.210;10.628;2022-07-01T01:03:47;5.93;;;3.45;;
8536;SDS011;4306;50.210;10.628;2022-07-01T01:06:14;6.25;;;3.20;;
8536;SDS011;4306;50.210;10.628;2022-07-01T01:08:42;4.47;;;3.00;;
8536;SDS011;4306;50.210;10.628;2022-07-01T01:11:09;8.93;;;3.00;;
8536;SDS011;4306;50.210;10.628;2022-07-01T01:13:36;5.90;;;3.20;;
8536;SDS011;4306;50.210;10.628;2022-07-01T01:16:03;8.48;;;3.28;;
8536;SDS011;4306;50.210;10.628;2022-07-01T01:18:31;5.35;;;2.67;;
8536;SDS011;4306;50.210;10.628;2022-07-01T01:21:00;3.30;;;2.63;;
8536;SDS011;4306;50.210;10.628;2022-07-01T01:23:27;5.57;;;3.30;;
8536;SDS011;4306;50.210;10.628;2022-07-01T01:25:54;6.72;;;3.60;;
8536;SDS011;4306;50.210;10.628;2022-07-01T01:28:20;5.45;;;2.97;;
8536;SDS011;4306;50.210;10.628;2022-07-01T01:30:49;4.45;;;3.15;;
8536;SDS011;4306;50.210;10.628;2022-07-01T01:33:17;5.85;;;3.40;;
8536;SDS011;4306;50.210;10.628;2022-07-01T01:35:44;6.63;;;2.95;;
8536;SDS011;4306;50.210;10.628;2022-07-01T01:38:12;5.82;;;3.50;;
8536;SDS011;4306;50.210;10.628;2022-07-01T01:40:39;5.43;;;3.33;;
8536;SDS011;4306;50.210;10.628;2022-07-01T01:43:06;7.13;;;3.10;;
8536;SDS011;4306;50.210;10.628;2022-07-01T01:45:33;4.30;;;3.15;;
8536;SDS011;4306;50.210;10.628;2022-07-01T01:48:00;6.35;;;3.28;;
8536;SDS011;4306;50.210;10.628;2022-07-01T01:50:27;4.55;;;3.15;;
8536;SDS011;4306;50.210;10.628;2022-07-01T01:52:54;4.90;;;2.83;;
8536;SDS011;4306;50.210;10.628;2022-07-01T01:55:22;5.45;;;3.25;;
8536;SDS011;4306;50.210;10.628;2022-07-01T01:57:49;4.03;;;3.20;;
8536;SDS011;4306;50.210;10.628;2022-07-01T02:00:16;5.22;;;2.80;;
8536;SDS011;4306;50.210;10.628;2022-07-01T02:02:43;4.53;;;3.13;;
8536;SDS011;4306;50.210;10.628;2022-07-01T02:05:11;4.45;;;2.58;;
8536;SDS011;4306;50.210;10.628;2022-07-01T02:07:38;4.38;;;3.17;;
8536;SDS011;4306;50.210;10.628;2022-07-01T02:10:06;4.13;;;2.70;;
8536;SDS011;4306;50.210;10.628;2022-07-01T02:12:35;3.75;;;3.08;;
8536;SDS011;4306;50.210;10.628;2022-07-01T02:15:02;4.13;;;3.00;;
8536;SDS011;4306;50.210;10.628;2022-07-01T02:17:30;5.43;;;3.20;;
8536;SDS011;4306;50.210;10.628;2022-07-01T02:19:57;4.40;;;3.00;;
8536;SDS011;4306;50.210;10.628;2022-07-01T02:22:23;5.38;;;2.85;;
8536;SDS011;4306;50.210;10.628;2022-07-01T02:24:50;5.88;;;3.00;;
8536;SDS011;4306;50.210;10.628;2022-07-01T02:27:17;7.50;;;3.35;;
8536;SDS011;4306;50.210;10.628;2022-07-01T02:29:46;3.78;;;3.20;;
8536;SDS011;4306;50.210;10.628;2022-07-01T02:32:13;4.18;;;2.78;;
8536;SDS011;4306;50.210;10.628;2022-07-01T02:34:40;3.60;;;2.55;;
8536;SDS011;4306;50.210;10.628;2022-07-01T02:37:07;5.20;;;2.80;;
8536;SDS011;4306;50.210;10.628;2022-07-01T02:39:34;4.20;;;2.53;;
8536;SDS011;4306;50.210;10.628;2022-07-01T02:42:00;3.75;;;2.42;;
8536;SDS011;4306;50.210;10.628;2022-07-01T02:44:58;5.18;;;2.65;;
8536;SDS011;4306;50.210;10.628;2022-07-01T02:47:25;3.33;;;2.45;;
8536;SDS011;4306;50.210;10.628;2022-07-01T02:49:57;3.72;;;2.67;;
8536;SDS011;4306;50.210;10.628;2022-07-01T02:52:24;3.50;;;2.33;;
8536;SDS011;4306;50.210;10.628;2022-07-01T02:54:52;3.95;;;2.67;;
8536;SDS011;4306;50.210;10.628;2022-07-01T02:57:19;3.20;;;2.20;;
8536;SDS011;4306;50.210;10.628;2022-07-01T02:59:46;4.28;;;2.70;;
8536;SDS011;4306;50.210;10.628;2022-07-01T03:02:17;4.15;;;2.40;;
8536;SDS011;4306;50.210;10.628;2022-07-01T03:04:44;5.13;;;2.60;;
8536;SDS011;4306;50.210;10.628;2022-07-01T03:07:12;5.15;;;2.78;;
8536;SDS011;4306;50.210;10.628;2022-07-01T03:09:39;5.68;;;2.58;;
8536;SDS011;4306;50.210;10.628;2022-07-01T03:12:07;4.22;;;2.90;;
8536;SDS011;4306;50.210;10.628;2022-07-01T03:14:48;4.72;;;2.70;;
8536;SDS011;4306;50.210;10.628;2022-07-01T03:17:17;4.97;;;2.50;;
8536;SDS011;4306;50.210;10.628;2022-07-01T03:19:44;4.82;;;3.03;;
8536;SDS011;4306;50.210;10.628;2022-07-01T03:22:12;3.10;;;2.38;;
8536;SDS011;4306;50.210;10.628;2022-07-01T03:24:39;3.85;;;2.30;;
8536;SDS011;4306;50.210;10.628;2022-07-01T03:27:06;4.20;;;2.75;;
8536;SDS011;4306;50.210;10.628;2022-07-01T03:29:33;3.20;;;2.45;;
8536;SDS011;4306;50.210;10.628;2022-07-01T03:32:00;4.75;;;2.55;;
8536;SDS011;4306;50.210;10.628;2022-07-01T03:34:28;5.95;;;2.38;;
8536;SDS011;4306;50.210;10.628;2022-07-01T03:36:55;2.88;;;2.13;;
8536;SDS011;4306;50.210;10.628;2022-07-01T03:39:22;3.35;;;2.38;;
8536;SDS011;4306;50.210;10.628;2022-07-01T03:41:49;4.28;;;2.60;;
8536;SDS011;4306;50.210;10.628;2022-07-01T03:44:16;6.40;;;2.70;;
8536;SDS011;4306;50.210;10.628;2022-07-01T03:46:43;3.45;;;2.50;;
8536;SDS011;4306;50.210;10.628;2022-07-01T03:49:10;3.72;;;2.53;;
8536;SDS011;4306;50.210;10.628;2022-07-01T03:51:38;4.53;;;2.47;;
8536;SDS011;4306;50.210;10.628;2022-07-01T03:54:05;4.25;;;2.78;;
8536;SDS011;4306;50.210;10.628;2022-07-01T03:56:50;4.18;;;2.50;;
8536;SDS011;4306;50.210;10.628;2022-07-01T03:59:17;2.83;;;2.10;;
8536;SDS011;4306;50.210;10.628;2022-07-01T04:01:44;3.22;;;2.45;;
8536;SDS011;4306;50.210;10.628;2022-07-01T04:04:11;6.65;;;4.00;;
8536;SDS011;4306;50.210;10.628;2022-07-01T04:06:39;5.15;;;2.90;;
8536;SDS011;4306;50.210;10.628;2022-07-01T04:09:07;4.57;;;3.22;;
8536;SDS011;4306;50.210;10.628;2022-07-01T04:11:33;29.10;;;22.00;;
8536;SDS011;4306;50.210;10.628;2022-07-01T04:14:00;6.60;;;5.00;;
8536;SDS011;4306;50.210;10.628;2022-07-01T04:16:27;5.85;;;4.10;;
8536;SDS011;4306;50.210;10.628;2022-07-01T04:18:54;7.70;;;3.88;;
8536;SDS011;4306;50.210;10.628;2022-07-01T04:21:21;5.55;;;3.75;;
8536;SDS011;4306;50.210;10.628;2022-07-01T04:24:07;4.45;;;3.70;;
8536;SDS011;4306;50.210;10.628;2022-07-01T04:26:34;5.60;;;3.97;;
8536;SDS011;4306;50.210;10.628;2022-07-01T04:29:01;5.50;;;3.85;;
8536;SDS011;4306;50.210;10.628;2022-07-01T04:31:29;4.47;;;3.33;;
8536;SDS011;4306;50.210;10.628;2022-07-01T04:33:56;4.57;;;3.40;;
8536;SDS011;4306;50.210;10.628;2022-07-01T04:36:23;5.38;;;3.17;;
8536;SDS011;4306;50.210;10.628;2022-07-01T04:38:50;3.90;;;3.15;;
8536;SDS011;4306;50.210;10.628;2022-07-01T04:41:18;4.32;;;3.45;;
8536;SDS011;4306;50.210;10.628;2022-07-01T04:44:03;5.15;;;3.20;;
8536;SDS011;4306;50.210;10.628;2022-07-01T04:46:30;5.80;;;3.60;;
8536;SDS011;4306;50.210;10.628;2022-07-01T04:48:57;6.18;;;4.30;;
8536;SDS011;4306;50.210;10.628;2022-07-01T04:51:24;4.10;;;3.50;;
8536;SDS011;4306;50.210;10.628;2022-07-01T04:53:51;5.30;;;3.50;;
8536;SDS011;4306;50.210;10.628;2022-07-01T04:56:19;4.72;;;3.85;;
8536;SDS011;4306;50.210;10.628;2022-07-01T04:58:47;6.13;;;4.15;;
8536;SDS011;4306;50.210;10.628;2022-07-01T05:01:14;4.70;;;3.95;;
8536;SDS011;4306;50.210;10.628;2022-07-01T05:03:41;5.35;;;4.28;;
8536;SDS011;4306;50.210;10.628;2022-07-01T05:06:08;6.22;;;3.95;;
8536;SDS011;4306;50.210;10.628;2022-07-01T05:08:35;5.18;;;4.45;;
8536;SDS011;4306;50.210;10.628;2022-07-01T05:11:02;5.32;;;4.18;;
8536;SDS011;4306;50.210;10.628;2022-07-01T05:13:30;4.13;;;3.40;;
8536;SDS011;4306;50.210;10.628;2022-07-01T05:15:58;6.15;;;3.90;;
8536;SDS011;4306;50.210;10.628;2022-07-01T05:18:25;7.55;;;3.50;;
8536;SDS011;4306;50.210;10.628;2022-07-01T05:21:09;5.22;;;3.75;;
8536;SDS011;4306;50.210;10.628;2022-07-01T05:23:53;5.03;;;3.55;;
8536;SDS011;4306;50.210;10.628;2022-07-01T05:26:20;6.53;;;3.90;;
8536;SDS011;4306;50.210;10.628;2022-07-01T05:28:51;5.47;;;3.75;;
8536;SDS011;4306;50.210;10.628;2022-07-01T05:31:19;6.10;;;3.95;;
8536;SDS011;4306;50.210;10.628;2022-07-01T05:33:46;5.53;;;3.90;;
8536;SDS011;4306;50.210;10.628;2022-07-01T05:36:13;5.93;;;3.95;;
8536;SDS011;4306;50.210;10.628;2022-07-01T05:38:40;5.38;;;4.10;;
8536;SDS011;4306;50.210;10.628;2022-07-01T05:41:08;6.70;;;4.57;;
8536;SDS011;4306;50.210;10.628;2022-07-01T05:43:34;6.35;;;4.90;;
8536;SDS011;4306;50.210;10.628;2022-07-01T05:46:03;7.78;;;4.75;;
8536;SDS011;4306;50.210;10.628;2022-07-01T05:48:30;5.65;;;4.88;;
8536;SDS011;4306;50.210;10.628;2022-07-01T05:50:57;6.25;;;5.18;;
8536;SDS011;4306;50.210;10.628;2022-07-01T05:53:24;5.55;;;4.95;;
8536;SDS011;4306;50.210;10.628;2022-07-01T05:55:50;5.43;;;4.70;;
8536;SDS011;4306;50.210;10.628;2022-07-01T05:58:18;5.38;;;4.88;;
8536;SDS011;4306;50.210;10.628;2022-07-01T06:00:45;6.00;;;5.40;;
8536;SDS011;4306;50.210;10.628;2022-07-01T06:03:13;5.97;;;5.38;;
8536;SDS011;4306;50.210;10.628;2022-07-01T06:05:41;6.38;;;5.40;;
8536;SDS011;4306;50.210;10.628;2022-07-01T06:08:08;6.88;;;6.18;;
8536;SDS011;4306;50.210;10.628;2022-07-01T06:10:35;7.93;;;6.20;;
8536;SDS011;4306;50.210;10.628;2022-07-01T06:13:03;12.75;;;9.60;;
8536;SDS011;4306;50.210;10.628;2022-07-01T06:15:30;10.65;;;8.00;;
8536;SDS011;4306;50.210;10.628;2022-07-01T06:17:57;7.38;;;6.18;;
8536;SDS011;4306;50.210;10.628;2022-07-01T06:20:26;6.55;;;5.95;;
8536;SDS011;4306;50.210;10.628;2022-07-01T06:22:53;6.40;;;5.68;;
8536;SDS011;4306;50.210;10.628;2022-07-01T06:25:20;7.60;;;6.03;;
8536;SDS011;4306;50.210;10.628;2022-07-01T06:27:47;8.52;;;6.63;;
8536;SDS011;4306;50.210;10.628;2022-07-01T06:30:14;7.00;;;6.30;;
8536;SDS011;4306;50.210;10.628;2022-07-01T06:32:41;6.95;;;6.25;;
8536;SDS011;4306;50.210;10.628;2022-07-01T06:35:08;8.93;;;6.95;;
8536;SDS011;4306;50.210;10.628;2022-07-01T06:37:37;7.50;;;6.70;;
8536;SDS011;4306;50.210;10.628;2022-07-01T06:40:04;8.13;;;7.30;;
8536;SDS011;4306;50.210;10.628;2022-07-01T06:42:32;9.07;;;8.20;;
8536;SDS011;4306;50.210;10.628;2022-07-01T06:45:00;9.25;;;8.18;;
8536;SDS011;4306;50.210;10.628;2022-07-01T06:47:27;10.40;;;8.65;;
8536;SDS011;4306;50.210;10.628;2022-07-01T06:49:54;9.70;;;8.73;;
8536;SDS011;4306;50.210;10.628;2022-07-01T06:52:21;10.00;;;9.00;;
8536;SDS011;4306;50.210;10.628;2022-07-01T06:54:49;9.55;;;8.57;;
8536;SDS011;4306;50.210;10.628;2022-07-01T06:57:16;9.00;;;8.10;;
8536;SDS011;4306;50.210;10.628;2022-07-01T06:59:43;8.95;;;8.07;;
8536;SDS011;4306;50.210;10.628;2022-07-01T07:02:10;10.43;;;9.32;;
8536;SDS011;4306;50.210;10.628;2022-07-01T07:04:37;10.70;;;9.60;;
8536;SDS011;4306;50.210;10.628;2022-07-01T07:07:04;9.23;;;8.32;;
8536;SDS011;4306;50.210;10.628;2022-07-01T07:09:31;9.32;;;8.32;;
8536;SDS011;4306;50.210;10.628;2022-07-01T07:11:59;10.30;;;9.27;;
8536;SDS011;4306;50.210;10.628;2022-07-01T07:14:26;10.93;;;8.88;;
8536;SDS011;4306;50.210;10.628;2022-07-01T07:16:53;9.90;;;8.90;;
8536;SDS011;4306;50.210;10.628;2022-07-01T07:19:20;10.35;;;9.30;;
8536;SDS011;4306;50.210;10.628;2022-07-01T07:21:47;10.13;;;9.13;;
8536;SDS011;4306;50.210;10.628;2022-07-01T07:24:14;9.52;;;8.60;;
8536;SDS011;4306;50.210;10.628;2022-07-01T07:26:41;10.57;;;9.52;;
8536;SDS011;4306;50.210;10.628;2022-07-01T07:29:09;10.52;;;9.45;;
8536;SDS011;4306;50.210;10.628;2022-07-01T07:31:36;11.05;;;9.63;;
8536;SDS011;4306;50.210;10.628;2022-07-01T07:34:03;9.75;;;8.75;;
8536;SDS011;4306;50.210;10.628;2022-07-01T07:36:30;9.75;;;8.75;;
8536;SDS011;4306;50.210;10.628;2022-07-01T07:38:57;10.75;;;9.10;;
8536;SDS011;4306;50.210;10.628;2022-07-01T07:41:25;10.43;;;8.98;;
8536;SDS011;4306;50.210;10.628;2022-07-01T07:43:52;10.15;;;9.10;;
8536;SDS011;4306;50.210;10.628;2022-07-01T07:46:20;9.65;;;8.65;;
8536;SDS011;4306;50.210;10.628;2022-07-01T07:48:47;9.38;;;8.48;;
8536;SDS011;4306;50.210;10.628;2022-07-01T07:51:14;9.23;;;8.30;;
8536;SDS011;4306;50.210;10.628;2022-07-01T07:53:43;9.85;;;8.85;;
8536;SDS011;4306;50.210;10.628;2022-07-01T07:56:11;9.68;;;8.68;;
8536;SDS011;4306;50.210;10.628;2022-07-01T07:58:37;9.27;;;8.10;;
8536;SDS011;4306;50.210;10.628;2022-07-01T08:01:07;10.73;;;9.48;;
8536;SDS011;4306;50.210;10.628;2022-07-01T08:03:36;11.20;;;10.02;;
8536;SDS011;4306;50.210;10.628;2022-07-01T08:06:03;10.95;;;9.82;;
8536;SDS011;4306;50.210;10.628;2022-07-01T08:08:30;9.38;;;8.45;;
8536;SDS011;4306;50.210;10.628;2022-07-01T08:10:58;11.32;;;9.35;;
8536;SDS011;4306;50.210;10.628;2022-07-01T08:13:26;10.27;;;9.18;;
8536;SDS011;4306;50.210;10.628;2022-07-01T08:15:53;11.88;;;8.75;;
8536;SDS011;4306;50.210;10.628;2022-07-01T08:18:20;11.30;;;10.10;;
8536;SDS011;4306;50.210;10.628;2022-07-01T08:20:48;10.57;;;8.98;;
8536;SDS011;4306;50.210;10.628;2022-07-01T08:23:17;9.38;;;8.43;;
8536;SDS011;4306;50.210;10.628;2022-07-01T08:25:45;9.57;;;8.63;;
8536;SDS011;4306;50.210;10.628;2022-07-01T08:28:12;9.65;;;8.38;;
8536;SDS011;4306;50.210;10.628;2022-07-01T08:30:39;8.43;;;7.50;;
8536;SDS011;4306;50.210;10.628;2022-07-01T08:33:06;8.88;;;7.97;;
8536;SDS011;4306;50.210;10.628;2022-07-01T08:35:33;8.95;;;8.05;;
8536;SDS011;4306;50.210;10.628;2022-07-01T08:38:02;8.60;;;7.38;;
8536;SDS011;4306;50.210;10.628;2022-07-01T08:40:30;8.70;;;7.80;;
8536;SDS011;4306;50.210;10.628;2022-07-01T08:42:57;11.05;;;7.47;;
8536;SDS011;4306;50.210;10.628;2022-07-01T08:45:25;9.07;;;8.07;;
8536;SDS011;4306;50.210;10.628;2022-07-01T08:47:53;9.55;;;7.88;;
8536;SDS011;4306;50.210;10.628;2022-07-01T08:50:25;9.30;;;7.88;;
8536;SDS011;4306;50.210;10.628;2022-07-01T08:52:53;9.30;;;8.18;;
8536;SDS011;4306;50.210;10.628;2022-07-01T08:55:23;10.20;;;7.75;;
8536;SDS011;4306;50.210;10.628;2022-07-01T08:57:51;9.35;;;8.00;;
8536;SDS011;4306;50.210;10.628;2022-07-01T09:00:18;8.80;;;7.63;;
8536;SDS011;4306;50.210;10.628;2022-07-01T09:02:48;9.63;;;7.68;;
8536;SDS011;4306;50.210;10.628;2022-07-01T09:05:20;10.25;;;8.15;;
8536;SDS011;4306;50.210;10.628;2022-07-01T09:07:48;10.70;;;7.97;;
8536;SDS011;4306;50.210;10.628;2022-07-01T09:10:22;10.95;;;8.10;;
8536;SDS011;4306;50.210;10.628;2022-07-01T09:12:50;10.48;;;7.72;;
8536;SDS011;4306;50.210;10.628;2022-07-01T09:15:21;12.23;;;8.23;;
8536;SDS011;4306;50.210;10.628;2022-07-01T09:17:51;8.27;;;7.07;;
8536;SDS011;4306;50.210;10.628;2022-07-01T09:20:22;10.75;;;7.80;;
8536;SDS011;4306;50.210;10.628;2022-07-01T09:22:57;9.32;;;7.45;;
8536;SDS011;4306;50.210;10.628;2022-07-01T09:25:33;10.90;;;7.88;;
8536;SDS011;4306;50.210;10.628;2022-07-01T09:28:05;10.48;;;7.65;;
8536;SDS011;4306;50.210;10.628;2022-07-01T09:30:34;8.88;;;7.30;;
8536;SDS011;4306;50.210;10.628;2022-07-01T09:33:06;10.18;;;7.43;;
8536;SDS011;4306;50.210;10.628;2022-07-01T09:35:34;10.52;;;7.38;;
8536;SDS011;4306;50.210;10.628;2022-07-01T09:38:02;9.68;;;7.35;;
8536;SDS011;4306;50.210;10.628;2022-07-01T09:40:49;9.02;;;7.20;;
8536;SDS011;4306;50.210;10.628;2022-07-01T09:43:19;10.27;;;6.60;;
8536;SDS011;4306;50.210;10.628;2022-07-01T09:45:48;7.88;;;5.72;;
8536;SDS011;4306;50.210;10.628;2022-07-01T09:48:19;8.57;;;6.18;;
8536;SDS011;4306;50.210;10.628;2022-07-01T09:50:47;6.38;;;5.35;;
8536;SDS011;4306;50.210;10.628;2022-07-01T09:53:14;7.28;;;5.65;;
8536;SDS011;4306;50.210;10.628;2022-07-01T09:55:41;7.18;;;5.63;;
8536;SDS011;4306;50.210;10.628;2022-07-01T09:58:09;8.02;;;5.28;;
8536;SDS011;4306;50.210;10.628;2022-07-01T10:00:37;6.60;;;5.15;;
8536;SDS011;4306;50.210;10.628;2022-07-01T10:03:04;7.50;;;5.20;;
8536;SDS011;4306;50.210;10.628;2022-07-01T10:05:33;6.70;;;5.28;;
8536;SDS011;4306;50.210;10.628;2022-07-01T10:08:10;7.85;;;5.53;;
8536;SDS011;4306;50.210;10.628;2022-07-01T10:10:59;6.88;;;5.20;;
8536;SDS011;4306;50.210;10.628;2022-07-01T10:13:42;8.20;;;5.35;;
8536;SDS011;4306;50.210;10.628;2022-07-01T10:16:10;6.32;;;5.03;;
8536;SDS011;4306;50.210;10.628;2022-07-01T10:18:39;8.68;;;5.20;;
8536;SDS011;4306;50.210;10.628;2022-07-01T10:21:06;6.15;;;4.90;;
8536;SDS011;4306;50.210;10.628;2022-07-01T10:23:37;6.13;;;4.90;;
8536;SDS011;4306;50.210;10.628;2022-07-01T10:26:06;6.50;;;4.88;;
8536;SDS011;4306;50.210;10.628;2022-07-01T10:28:43;5.75;;;4.43;;
8536;SDS011;4306;50.210;10.628;2022-07-01T10:31:12;5.60;;;4.25;;
8536;SDS011;4306;50.210;10.628;2022-07-01T10:33:43;7.38;;;4.68;;
8536;SDS011;4306;50.210;10.628;2022-07-01T10:36:13;5.65;;;4.18;;
8536;SDS011;4306;50.210;10.628;2022-07-01T10:41:35;5.00;;;3.75;;
8536;SDS011;4306;50.210;10.628;2022-07-01T10:44:05;4.70;;;3.53;;
8536;SDS011;4306;50.210;10.628;2022-07-01T10:46:37;6.00;;;4.35;;
8536;SDS011;4306;50.210;10.628;2022-07-01T10:49:06;6.05;;;3.90;;
8536;SDS011;4306;50.210;10.628;2022-07-01T10:51:45;4.47;;;3.63;;
8536;SDS011;4306;50.210;10.628;2022-07-01T10:54:13;4.95;;;3.90;;
8536;SDS011;4306;50.210;10.628;2022-07-01T10:57:21;5.40;;;3.92;;
8536;SDS011;4306;50.210;10.628;2022-07-01T10:59:54;5.47;;;3.95;;
8536;SDS011;4306;50.210;10.628;2022-07-01T11:02:22;8.32;;;4.78;;
8536;SDS011;4306;50.210;10.628;2022-07-01T11:04:50;4.95;;;3.90;;
8536;SDS011;4306;50.210;10.628;2022-07-01T11:07:19;4.78;;;4.15;;
8536;SDS011;4306;50.210;10.628;2022-07-01T11:09:46;5.07;;;3.78;;
8536;SDS011;4306;50.210;10.628;2022-07-01T11:12:14;5.35;;;4.15;;
8536;SDS011;4306;50.210;10.628;2022-07-01T11:14:42;4.97;;;3.95;;
8536;SDS011;4306;50.210;10.628;2022-07-01T11:17:10;4.97;;;3.97;;
8536;SDS011;4306;50.210;10.628;2022-07-01T11:19:37;5.47;;;4.35;;
8536;SDS011;4306;50.210;10.628;2022-07-01T11:22:05;4.28;;;3.70;;
8536;SDS011;4306;50.210;10.628;2022-07-01T11:24:32;4.88;;;3.75;;
8536;SDS011;4306;50.210;10.628;2022-07-01T11:26:59;4.07;;;3.40;;
8536;SDS011;4306;50.210;10.628;2022-07-01T11:29:27;5.47;;;3.53;;
8536;SDS011;4306;50.210;10.628;2022-07-01T11:31:54;4.82;;;3.42;;
8536;SDS011;4306;50.210;10.628;2022-07-01T11:34:23;5.25;;;3.33;;
8536;SDS011;4306;50.210;10.628;2022-07-01T11:36:54;4.30;;;2.58;;
8536;SDS011;4306;50.210;10.628;2022-07-01T11:39:39;3.35;;;2.42;;
8536;SDS011;4306;50.210;10.628;2022-07-01T11:42:09;3.72;;;2.80;;
8536;SDS011;4306;50.210;10.628;2022-07-01T11:44:37;4.32;;;3.22;;
8536;SDS011;4306;50.210;10.628;2022-07-01T11:47:05;3.58;;;2.67;;
8536;SDS011;4306;50.210;10.628;2022-07-01T11:49:44;4.35;;;2.60;;
8536;SDS011;4306;50.210;10.628;2022-07-01T11:52:12;4.45;;;2.67;;
8536;SDS011;4306;50.210;10.628;2022-07-01T11:54:40;4.78;;;2.83;;
8536;SDS011;4306;50.210;10.628;2022-07-01T11:57:10;4.22;;;3.08;;
8536;SDS011;4306;50.210;10.628;2022-07-01T11:59:39;3.03;;;2.45;;
8536;SDS011;4306;50.210;10.628;2022-07-01T12:02:07;3.30;;;2.40;;
8536;SDS011;4306;50.210;10.628;2022-07-01T12:04:36;3.35;;;2.40;;
8536;SDS011;4306;50.210;10.628;2022-07-01T12:07:05;4.13;;;2.63;;
8536;SDS011;4306;50.210;10.628;2022-07-01T12:09:33;3.25;;;2.35;;
8536;SDS011;4306;50.210;10.628;2022-07-01T12:12:01;4.60;;;2.95;;
8536;SDS011;4306;50.210;10.628;2022-07-01T12:14:30;2.85;;;2.30;;
8536;SDS011;4306;50.210;10.628;2022-07-01T12:16:59;2.83;;;2.00;;
8536;SDS011;4306;50.210;10.628;2022-07-01T12:19:28;3.50;;;2.22;;
8536;SDS011;4306;50.210;10.628;2022-07-01T12:21:56;4.55;;;1.92;;
8536;SDS011;4306;50.210;10.628;2022-07-01T12:24:25;2.92;;;1.88;;
8536;SDS011;4306;50.210;10.628;2022-07-01T12:26:53;3.13;;;1.90;;
8536;SDS011;4306;50.210;10.628;2022-07-01T12:29:29;2.97;;;1.73;;
8536;SDS011;4306;50.210;10.628;2022-07-01T12:31:58;3.42;;;1.88;;
8536;SDS011;4306;50.210;10.628;2022-07-01T12:34:36;7.35;;;1.90;;
8536;SDS011;4306;50.210;10.628;2022-07-01T12:37:09;2.38;;;1.50;;
8536;SDS011;4306;50.210;10.628;2022-07-01T12:39:43;2.95;;;1.70;;
8536;SDS011;4306;50.210;10.628;2022-07-01T12:42:19;2.20;;;1.50;;
8536;SDS011;4306;50.210;10.628;2022-07-01T12:44:50;3.08;;;1.45;;
8536;SDS011;4306;50.210;10.628;2022-07-01T12:47:18;2.92;;;1.70;;
8536;SDS011;4306;50.210;10.628;2022-07-01T12:49:46;3.47;;;1.45;;
8536;SDS011;4306;50.210;10.628;2022-07-01T12:52:23;2.22;;;1.52;;
8536;SDS011;4306;50.210;10.628;2022-07-01T12:54:52;1.90;;;1.30;;
8536;SDS011;4306;50.210;10.628;2022-07-01T12:57:29;2.10;;;1.55;;
8536;SDS011;4306;50.210;10.628;2022-07-01T12:59:57;5.32;;;2.80;;
8536;SDS011;4306;50.210;10.628;2022-07-01T13:02:24;4.15;;;2.75;;
8536;SDS011;4306;50.210;10.628;2022-07-01T13:04:51;3.20;;;2.17;;
8536;SDS011;4306;50.210;10.628;2022-07-01T13:07:18;4.28;;;2.90;;
8536;SDS011;4306;50.210;10.628;2022-07-01T13:09:45;2.85;;;1.80;;
8536;SDS011;4306;50.210;10.628;2022-07-01T13:12:13;2.63;;;1.90;;
8536;SDS011;4306;50.210;10.628;2022-07-01T13:14:41;2.38;;;1.63;;
8536;SDS011;4306;50.210;10.628;2022-07-01T13:17:09;2.72;;;1.90;;
8536;SDS011;4306;50.210;10.628;2022-07-01T13:19:36;3.28;;;1.83;;
8536;SDS011;4306;50.210;10.628;2022-07-01T13:22:03;3.53;;;2.00;;
8536;SDS011;4306;50.210;10.628;2022-07-01T13:24:31;2.45;;;2.00;;
8536;SDS011;4306;50.210;10.628;2022-07-01T13:26:58;3.10;;;2.00;;
8536;SDS011;4306;50.210;10.628;2022-07-01T13:29:27;2.63;;;1.48;;
8536;SDS011;4306;50.210;10.628;2022-07-01T13:31:54;2.35;;;1.52;;
8536;SDS011;4306;50.210;10.628;2022-07-01T13:34:21;2.45;;;1.50;;
8536;SDS011;4306;50.210;10.628;2022-07-01T13:36:48;2.30;;;1.60;;
8536;SDS011;4306;50.210;10.628;2022-07-01T13:39:15;2.38;;;1.60;;
8536;SDS011;4306;50.210;10.628;2022-07-01T13:41:43;3.70;;;1.60;;
8536;SDS011;4306;50.210;10.628;2022-07-01T13:44:09;3.58;;;1.80;;
8536;SDS011;4306;50.210;10.628;2022-07-01T13:46:38;2.85;;;1.70;;
8536;SDS011;4306;50.210;10.628;2022-07-01T13:49:06;2.90;;;1.80;;
8536;SDS011;4306;50.210;10.628;2022-07-01T13:51:33;3.53;;;1.63;;
8536;SDS011;4306;50.210;10.628;2022-07-01T13:54:00;3.15;;;1.40;;
8536;SDS011;4306;50.210;10.628;2022-07-01T13:56:27;2.08;;;1.38;;
8536;SDS011;4306;50.210;10.628;2022-07-01T13:58:54;3.97;;;1.63;;
8536;SDS011;4306;50.210;10.628;2022-07-01T14:01:21;2.10;;;1.48;;
8536;SDS011;4306;50.210;10.628;2022-07-01T14:03:50;4.90;;;1.58;;
8536;SDS011;4306;50.210;10.628;2022-07-01T14:06:18;4.50;;;1.40;;
8536;SDS011;4306;50.210;10.628;2022-07-01T14:08:45;1.83;;;1.40;;
8536;SDS011;4306;50.210;10.628;2022-07-01T14:11:12;1.52;;;1.30;;
8536;SDS011;4306;50.210;10.628;2022-07-01T14:13:40;2.38;;;1.23;;
8536;SDS011;4306;50.210;10.628;2022-07-01T14:16:07;2.17;;;1.30;;
8536;SDS011;4306;50.210;10.628;2022-07-01T14:18:35;2.58;;;1.20;;
8536;SDS011;4306;50.210;10.628;2022-07-01T14:21:04;1.63;;;1.10;;
8536;SDS011;4306;50.210;10.628;2022-07-01T14:23:32;3.80;;;1.58;;
8536;SDS011;4306;50.210;10.628;2022-07-01T14:25:59;3.13;;;1.45;;
8536;SDS011;4306;50.210;10.628;2022-07-01T14:28:26;4.43;;;1.45;;
8536;SDS011;4306;50.210;10.628;2022-07-01T14:30:53;1.85;;;1.38;;
8536;SDS011;4306;50.210;10.628;2022-07-01T14:33:20;2.75;;;1.30;;
8536;SDS011;4306;50.210;10.628;2022-07-01T14:35:47;3.17;;;1.30;;
8536;SDS011;4306;50.210;10.628;2022-07-01T14:38:16;2.08;;;1.20;;
8536;SDS011;4306;50.210;10.628;2022-07-01T14:40:44;1.95;;;1.10;;
8536;SDS011;4306;50.210;10.628;2022-07-01T14:43:11;2.03;;;1.27;;
8536;SDS011;4306;50.210;10.628;2022-07-01T14:45:38;2.65;;;1.13;;
8536;SDS011;4306;50.210;10.628;2022-07-01T14:48:05;2.35;;;1.17;;
8536;SDS011;4306;50.210;10.628;2022-07-01T14:50:33;3.17;;;1.30;;
8536;SDS011;4306;50.210;10.628;2022-07-01T14:53:00;1.40;;;1.05;;
8536;SDS011;4306;50.210;10.628;2022-07-01T14:55:30;2.38;;;1.20;;
8536;SDS011;4306;50.210;10.628;2022-07-01T14:57:57;2.53;;;1.55;;
8536;SDS011;4306;50.210;10.628;2022-07-01T15:00:24;2.20;;;1.30;;
8536;SDS011;4306;50.210;10.628;2022-07-01T15:02:51;3.08;;;1.40;;
8536;SDS011;4306;50.210;10.628;2022-07-01T15:05:20;3.40;;;1.40;;
8536;SDS011;4306;50.210;10.628;2022-07-01T15:07:47;2.90;;;1.67;;
8536;SDS011;4306;50.210;10.628;2022-07-01T15:10:14;2.83;;;1.63;;
8536;SDS011;4306;50.210;10.628;2022-07-01T15:12:42;2.22;;;1.48;;